sensor_id;sensor_type;location;lat;lon;timestamp;temperature;humidity
15969;DHT22;8085;53.472;9.794;2023-04-21T00:01:48;7.30;99.90
15969;DHT22;8085;53.472;9.794;2023-04-21T00:04:22;7.20;99.90
15969;DHT22;8085;53.472;9.794;2023-04-21T00:07:07;7.20;99.90
15969;DHT22;8085;53.472;9.794;2023-04-21T00:09:42;7.30;99.90
15969;DHT22;8085;53.472;9.794;2023-04-21T00:15:47;7.20;99.90
15969;DHT22;8085;53.472;9.794;2023-04-21T00:18:37;7.20;99.90
15969;DHT22;8085;53.472;9.794;2023-04-21T00:28:11;7.20;99.90
15969;DHT22;8085;53.472;9.794;2023-04-21T00:31:09;7.20;99.90
15969;DHT22;8085;53.472;9.794;2023-04-21T00:34:03;7.10;99.90
15969;DHT22;8085;53.472;9.794;2023-04-21T00:36:54;7.10;99.90
15969;DHT22;8085;53.472;9.794;2023-04-21T00:39:30;7.00;99.90
15969;DHT22;8085;53.472;9.794;2023-04-21T00:42:19;7.00;99.90
15969;DHT22;8085;53.472;9.794;2023-04-21T00:44:49;7.00;99.90
15969;DHT22;8085;53.472;9.794;2023-04-21T00:47:20;6.90;99.90
15969;DHT22;8085;53.472;9.794;2023-04-21T00:49:54;6.90;99.90
15969;DHT22;8085;53.472;9.794;2023-04-21T00:53:02;7.00;99.90
15969;DHT22;8085;53.472;9.794;2023-04-21T00:55:31;6.90;99.90
15969;DHT22;8085;53.472;9.794;2023-04-21T00:58:13;6.90;99.90
15969;DHT22;8085;53.472;9.794;2023-04-21T01:00:50;6.90;99.90
15969;DHT22;8085;53.472;9.794;2023-04-21T01:03:22;6.80;99.90
15969;DHT22;8085;53.472;9.794;2023-04-21T01:05:50;6.80;99.90
15969;DHT22;8085;53.472;9.794;2023-04-21T01:08:28;6.80;99.90
15969;DHT22;8085;53.472;9.794;2023-04-21T01:11:38;6.90;99.90
15969;DHT22;8085;53.472;9.794;2023-04-21T01:14:12;6.80;99.90
15969;DHT22;8085;53.472;9.794;2023-04-21T01:16:55;6.70;99.90
15969;DHT22;8085;53.472;9.794;2023-04-21T01:19:29;6.70;99.90
15969;DHT22;8085;53.472;9.794;2023-04-21T01:22:03;6.70;99.90
15969;DHT22;8085;53.472;9.794;2023-04-21T01:24:40;6.60;99.90
15969;DHT22;8085;53.472;9.794;2023-04-21T01:27:08;6.60;99.90
15969;DHT22;8085;53.472;9.794;2023-04-21T01:29:41;6.60;99.90
15969;DHT22;8085;53.472;9.794;2023-04-21T01:32:31;6.60;99.90
15969;DHT22;8085;53.472;9.794;2023-04-21T01:34:59;6.60;99.90
15969;DHT22;8085;53.472;9.794;2023-04-21T01:37:38;6.60;99.90
15969;DHT22;8085;53.472;9.794;2023-04-21T01:40:19;6.60;99.90
15969;DHT22;8085;53.472;9.794;2023-04-21T01:42:54;6.50;99.90
15969;DHT22;8085;53.472;9.794;2023-04-21T01:45:33;6.50;99.90
15969;DHT22;8085;53.472;9.794;2023-04-21T01:48:13;6.50;99.90
15969;DHT22;8085;53.472;9.794;2023-04-21T01:50:57;6.50;99.90
15969;DHT22;8085;53.472;9.794;2023-04-21T01:53:40;6.50;99.90
15969;DHT22;8085;53.472;9.794;2023-04-21T01:56:13;6.60;99.90
15969;DHT22;8085;53.472;9.794;2023-04-21T01:58:43;6.50;99.90
15969;DHT22;8085;53.472;9.794;2023-04-21T02:01:16;6.50;99.90
15969;DHT22;8085;53.472;9.794;2023-04-21T02:03:45;6.50;99.90
15969;DHT22;8085;53.472;9.794;2023-04-21T02:06:22;6.50;99.90
15969;DHT22;8085;53.472;9.794;2023-04-21T02:09:53;6.50;99.90
15969;DHT22;8085;53.472;9.794;2023-04-21T02:12:43;6.60;99.90
15969;DHT22;8085;53.472;9.794;2023-04-21T02:15:11;6.60;99.90
15969;DHT22;8085;53.472;9.794;2023-04-21T02:17:46;6.60;99.90
15969;DHT22;8085;53.472;9.794;2023-04-21T02:24:00;6.50;99.90
15969;DHT22;8085;53.472;9.794;2023-04-21T02:26:57;6.50;99.90
15969;DHT22;8085;53.472;9.794;2023-04-21T02:29:45;6.50;99.90
15969;DHT22;8085;53.472;9.794;2023-04-21T02:32:29;6.50;99.90
15969;DHT22;8085;53.472;9.794;2023-04-21T02:35:24;6.50;99.90
15969;DHT22;8085;53.472;9.794;2023-04-21T02:41:31;6.50;99.90
15969;DHT22;8085;53.472;9.794;2023-04-21T02:44:28;6.40;99.90
15969;DHT22;8085;53.472;9.794;2023-04-21T02:47:02;6.40;99.90
15969;DHT22;8085;53.472;9.794;2023-04-21T02:49:30;6.40;99.90
15969;DHT22;8085;53.472;9.794;2023-04-21T02:52:20;6.40;99.90
15969;DHT22;8085;53.472;9.794;2023-04-21T02:55:08;6.40;99.90
15969;DHT22;8085;53.472;9.794;2023-04-21T02:57:44;6.40;99.90
15969;DHT22;8085;53.472;9.794;2023-04-21T03:00:13;6.40;99.90
15969;DHT22;8085;53.472;9.794;2023-04-21T03:02:48;6.40;99.90
15969;DHT22;8085;53.472;9.794;2023-04-21T03:05:19;6.40;99.90
15969;DHT22;8085;53.472;9.794;2023-04-21T03:07:50;6.40;99.90
15969;DHT22;8085;53.472;9.794;2023-04-21T03:10:39;6.50;99.90
15969;DHT22;8085;53.472;9.794;2023-04-21T03:13:06;6.50;99.90
15969;DHT22;8085;53.472;9.794;2023-04-21T03:15:35;6.40;99.90
15969;DHT22;8085;53.472;9.794;2023-04-21T03:18:08;6.40;99.90
15969;DHT22;8085;53.472;9.794;2023-04-21T03:20:43;6.40;99.90
15969;DHT22;8085;53.472;9.794;2023-04-21T03:23:16;6.40;99.90
15969;DHT22;8085;53.472;9.794;2023-04-21T03:26:00;6.40;99.90
15969;DHT22;8085;53.472;9.794;2023-04-21T03:28:40;6.40;99.90
15969;DHT22;8085;53.472;9.794;2023-04-21T03:31:13;6.40;99.90
15969;DHT22;8085;53.472;9.794;2023-04-21T03:33:42;6.40;99.90
15969;DHT22;8085;53.472;9.794;2023-04-21T03:36:27;6.40;99.90
15969;DHT22;8085;53.472;9.794;2023-04-21T03:38:56;6.30;99.90
15969;DHT22;8085;53.472;9.794;2023-04-21T03:41:24;6.30;99.90
15969;DHT22;8085;53.472;9.794;2023-04-21T03:43:52;6.40;99.90
15969;DHT22;8085;53.472;9.794;2023-04-21T03:46:21;6.30;99.90
15969;DHT22;8085;53.472;9.794;2023-04-21T03:48:49;6.30;99.90
15969;DHT22;8085;53.472;9.794;2023-04-21T03:51:19;6.30;99.90
15969;DHT22;8085;53.472;9.794;2023-04-21T03:53:46;6.40;99.90
15969;DHT22;8085;53.472;9.794;2023-04-21T03:56:20;6.30;99.90
15969;DHT22;8085;53.472;9.794;2023-04-21T03:58:50;6.30;99.90
15969;DHT22;8085;53.472;9.794;2023-04-21T04:01:22;6.30;99.90
15969;DHT22;8085;53.472;9.794;2023-04-21T04:03:50;6.30;99.90
15969;DHT22;8085;53.472;9.794;2023-04-21T04:06:33;6.30;99.90
15969;DHT22;8085;53.472;9.794;2023-04-21T04:09:08;6.30;99.90
15969;DHT22;8085;53.472;9.794;2023-04-21T04:11:44;6.30;99.90
15969;DHT22;8085;53.472;9.794;2023-04-21T04:14:12;6.40;99.90
15969;DHT22;8085;53.472;9.794;2023-04-21T04:16:50;6.30;99.90
15969;DHT22;8085;53.472;9.794;2023-04-21T04:19:28;6.30;99.90
15969;DHT22;8085;53.472;9.794;2023-04-21T04:22:04;6.30;99.90
15969;DHT22;8085;53.472;9.794;2023-04-21T04:24:40;6.40;99.90
15969;DHT22;8085;53.472;9.794;2023-04-21T04:27:16;6.40;99.90
15969;DHT22;8085;53.472;9.794;2023-04-21T04:30:05;6.40;99.90
15969;DHT22;8085;53.472;9.794;2023-04-21T04:32:40;6.40;99.90
15969;DHT22;8085;53.472;9.794;2023-04-21T04:35:24;6.50;99.90
15969;DHT22;8085;53.472;9.794;2023-04-21T04:37:58;6.50;99.90
15969;DHT22;8085;53.472;9.794;2023-04-21T04:40:38;6.60;99.90
15969;DHT22;8085;53.472;9.794;2023-04-21T04:43:17;6.60;99.90
15969;DHT22;8085;53.472;9.794;2023-04-21T04:45:53;6.60;99.90
15969;DHT22;8085;53.472;9.794;2023-04-21T04:48:27;6.60;99.90
15969;DHT22;8085;53.472;9.794;2023-04-21T04:51:05;6.70;99.90
15969;DHT22;8085;53.472;9.794;2023-04-21T04:57:38;6.70;99.90
15969;DHT22;8085;53.472;9.794;2023-04-21T05:00:15;6.80;99.90
15969;DHT22;8085;53.472;9.794;2023-04-21T05:03:00;6.90;99.90
15969;DHT22;8085;53.472;9.794;2023-04-21T05:06:24;7.00;99.90
15969;DHT22;8085;53.472;9.794;2023-04-21T05:09:26;7.20;99.90
15969;DHT22;8085;53.472;9.794;2023-04-21T05:12:20;7.30;99.90
15969;DHT22;8085;53.472;9.794;2023-04-21T05:15:58;7.20;99.90
15969;DHT22;8085;53.472;9.794;2023-04-21T05:18:54;7.30;99.90
15969;DHT22;8085;53.472;9.794;2023-04-21T05:22:13;7.40;99.90
15969;DHT22;8085;53.472;9.794;2023-04-21T05:24:56;7.60;99.90
15969;DHT22;8085;53.472;9.794;2023-04-21T05:27:25;8.10;99.90
15969;DHT22;8085;53.472;9.794;2023-04-21T05:30:25;9.00;99.90
15969;DHT22;8085;53.472;9.794;2023-04-21T05:32:48;9.80;99.90
15969;DHT22;8085;53.472;9.794;2023-04-21T05:35:26;10.30;99.20
15969;DHT22;8085;53.472;9.794;2023-04-21T05:38:19;10.60;1.00
15969;DHT22;8085;53.472;9.794;2023-04-21T05:40:54;10.40;1.00
15969;DHT22;8085;53.472;9.794;2023-04-21T05:43:21;10.20;1.00
15969;DHT22;8085;53.472;9.794;2023-04-21T05:45:48;10.20;1.00
15969;DHT22;8085;53.472;9.794;2023-04-21T05:48:15;9.90;1.00
15969;DHT22;8085;53.472;9.794;2023-04-21T05:50:42;9.50;8.50
15969;DHT22;8085;53.472;9.794;2023-04-21T05:53:09;9.10;28.30
15969;DHT22;8085;53.472;9.794;2023-04-21T05:55:37;8.80;46.30
15969;DHT22;8085;53.472;9.794;2023-04-21T05:58:04;8.70;53.10
15969;DHT22;8085;53.472;9.794;2023-04-21T06:00:31;8.70;60.40
15969;DHT22;8085;53.472;9.794;2023-04-21T06:02:58;8.70;61.30
15969;DHT22;8085;53.472;9.794;2023-04-21T06:05:25;8.80;62.70
15969;DHT22;8085;53.472;9.794;2023-04-21T06:07:52;8.80;63.10
15969;DHT22;8085;53.472;9.794;2023-04-21T06:10:20;8.90;57.70
15969;DHT22;8085;53.472;9.794;2023-04-21T06:12:48;9.00;54.10
15969;DHT22;8085;53.472;9.794;2023-04-21T06:15:15;9.00;49.40
15969;DHT22;8085;53.472;9.794;2023-04-21T06:17:42;9.10;40.20
15969;DHT22;8085;53.472;9.794;2023-04-21T06:20:10;9.10;41.20
15969;DHT22;8085;53.472;9.794;2023-04-21T06:22:36;9.10;37.40
15969;DHT22;8085;53.472;9.794;2023-04-21T06:25:04;9.20;37.50
15969;DHT22;8085;53.472;9.794;2023-04-21T06:27:31;9.30;32.20
15969;DHT22;8085;53.472;9.794;2023-04-21T06:29:59;9.30;25.70
15969;DHT22;8085;53.472;9.794;2023-04-21T06:32:26;9.40;23.10
15969;DHT22;8085;53.472;9.794;2023-04-21T06:34:53;9.40;23.90
15969;DHT22;8085;53.472;9.794;2023-04-21T06:37:20;9.50;14.60
15969;DHT22;8085;53.472;9.794;2023-04-21T06:39:47;9.60;18.80
15969;DHT22;8085;53.472;9.794;2023-04-21T06:42:13;9.60;1.00
15969;DHT22;8085;53.472;9.794;2023-04-21T06:44:40;9.70;1.00
15969;DHT22;8085;53.472;9.794;2023-04-21T06:47:08;9.80;1.00
15969;DHT22;8085;53.472;9.794;2023-04-21T06:49:35;9.90;1.00
15969;DHT22;8085;53.472;9.794;2023-04-21T06:52:02;10.00;1.00
15969;DHT22;8085;53.472;9.794;2023-04-21T06:54:29;10.10;1.00
15969;DHT22;8085;53.472;9.794;2023-04-21T06:56:56;10.20;1.00
15969;DHT22;8085;53.472;9.794;2023-04-21T06:59:23;10.20;1.00
15969;DHT22;8085;53.472;9.794;2023-04-21T07:01:50;10.30;1.00
15969;DHT22;8085;53.472;9.794;2023-04-21T07:04:19;10.40;1.00
15969;DHT22;8085;53.472;9.794;2023-04-21T07:06:46;10.50;1.00
15969;DHT22;8085;53.472;9.794;2023-04-21T07:09:13;10.50;1.00
15969;DHT22;8085;53.472;9.794;2023-04-21T07:11:40;10.70;1.00
15969;DHT22;8085;53.472;9.794;2023-04-21T07:14:09;10.70;1.00
15969;DHT22;8085;53.472;9.794;2023-04-21T07:16:36;10.90;1.00
15969;DHT22;8085;53.472;9.794;2023-04-21T07:19:03;11.00;1.00
15969;DHT22;8085;53.472;9.794;2023-04-21T07:21:31;11.10;1.00
15969;DHT22;8085;53.472;9.794;2023-04-21T07:24:01;11.30;1.00
15969;DHT22;8085;53.472;9.794;2023-04-21T07:26:27;11.40;1.00
15969;DHT22;8085;53.472;9.794;2023-04-21T07:28:55;11.50;1.00
15969;DHT22;8085;53.472;9.794;2023-04-21T07:31:23;11.60;1.00
15969;DHT22;8085;53.472;9.794;2023-04-21T07:33:50;11.80;1.00
15969;DHT22;8085;53.472;9.794;2023-04-21T07:36:17;11.80;1.00
15969;DHT22;8085;53.472;9.794;2023-04-21T07:38:45;11.90;1.00
15969;DHT22;8085;53.472;9.794;2023-04-21T07:41:12;12.00;1.00
15969;DHT22;8085;53.472;9.794;2023-04-21T07:43:39;12.10;1.00
15969;DHT22;8085;53.472;9.794;2023-04-21T07:46:06;12.20;1.00
15969;DHT22;8085;53.472;9.794;2023-04-21T07:48:33;12.30;1.00
15969;DHT22;8085;53.472;9.794;2023-04-21T07:51:00;12.50;1.00
15969;DHT22;8085;53.472;9.794;2023-04-21T07:53:28;12.60;1.00
15969;DHT22;8085;53.472;9.794;2023-04-21T07:55:56;12.70;99.90
15969;DHT22;8085;53.472;9.794;2023-04-21T07:58:23;12.90;1.00
15969;DHT22;8085;53.472;9.794;2023-04-21T08:00:50;13.00;99.90
15969;DHT22;8085;53.472;9.794;2023-04-21T08:03:17;13.10;99.90
15969;DHT22;8085;53.472;9.794;2023-04-21T08:05:44;13.20;99.90
15969;DHT22;8085;53.472;9.794;2023-04-21T08:08:11;13.40;99.90
15969;DHT22;8085;53.472;9.794;2023-04-21T08:10:38;13.60;99.90
15969;DHT22;8085;53.472;9.794;2023-04-21T08:13:06;13.70;99.90
15969;DHT22;8085;53.472;9.794;2023-04-21T08:15:33;13.80;99.90
15969;DHT22;8085;53.472;9.794;2023-04-21T08:18:00;14.00;99.90
15969;DHT22;8085;53.472;9.794;2023-04-21T08:20:27;14.00;99.90
15969;DHT22;8085;53.472;9.794;2023-04-21T08:22:54;14.10;99.90
15969;DHT22;8085;53.472;9.794;2023-04-21T08:25:21;14.20;1.00
15969;DHT22;8085;53.472;9.794;2023-04-21T08:27:48;14.20;99.90
15969;DHT22;8085;53.472;9.794;2023-04-21T08:30:16;14.30;1.00
15969;DHT22;8085;53.472;9.794;2023-04-21T08:32:43;14.40;1.00
15969;DHT22;8085;53.472;9.794;2023-04-21T08:35:10;14.60;94.10
15969;DHT22;8085;53.472;9.794;2023-04-21T08:37:37;14.80;34.50
15969;DHT22;8085;53.472;9.794;2023-04-21T08:40:05;15.00;99.90
15969;DHT22;8085;53.472;9.794;2023-04-21T08:42:33;15.10;1.00
15969;DHT22;8085;53.472;9.794;2023-04-21T08:45:01;15.20;1.00
15969;DHT22;8085;53.472;9.794;2023-04-21T08:47:31;15.30;99.90
15969;DHT22;8085;53.472;9.794;2023-04-21T08:49:58;15.40;99.90
15969;DHT22;8085;53.472;9.794;2023-04-21T08:52:25;15.60;1.00
15969;DHT22;8085;53.472;9.794;2023-04-21T08:54:52;15.70;1.00
15969;DHT22;8085;53.472;9.794;2023-04-21T08:57:20;15.80;1.00
15969;DHT22;8085;53.472;9.794;2023-04-21T08:59:47;15.80;1.00
15969;DHT22;8085;53.472;9.794;2023-04-21T09:02:14;15.90;1.00
15969;DHT22;8085;53.472;9.794;2023-04-21T09:04:44;16.00;1.00
15969;DHT22;8085;53.472;9.794;2023-04-21T09:07:12;16.30;99.90
15969;DHT22;8085;53.472;9.794;2023-04-21T09:09:56;16.50;1.00
15969;DHT22;8085;53.472;9.794;2023-04-21T09:12:23;16.60;99.90
15969;DHT22;8085;53.472;9.794;2023-04-21T09:14:50;16.60;26.90
15969;DHT22;8085;53.472;9.794;2023-04-21T09:17:19;16.70;99.90
15969;DHT22;8085;53.472;9.794;2023-04-21T09:19:48;16.80;61.80
15969;DHT22;8085;53.472;9.794;2023-04-21T09:22:15;17.00;1.00
15969;DHT22;8085;53.472;9.794;2023-04-21T09:24:47;17.20;99.90
15969;DHT22;8085;53.472;9.794;2023-04-21T09:27:14;17.20;99.90
15969;DHT22;8085;53.472;9.794;2023-04-21T09:29:45;17.30;99.90
15969;DHT22;8085;53.472;9.794;2023-04-21T09:32:16;17.40;1.00
15969;DHT22;8085;53.472;9.794;2023-04-21T09:34:44;17.50;1.00
15969;DHT22;8085;53.472;9.794;2023-04-21T09:37:13;17.70;1.00
15969;DHT22;8085;53.472;9.794;2023-04-21T09:39:44;17.80;99.90
15969;DHT22;8085;53.472;9.794;2023-04-21T09:42:11;18.00;1.00
15969;DHT22;8085;53.472;9.794;2023-04-21T09:44:38;18.00;1.00
15969;DHT22;8085;53.472;9.794;2023-04-21T09:47:09;18.00;1.00
15969;DHT22;8085;53.472;9.794;2023-04-21T09:49:38;18.10;1.00
15969;DHT22;8085;53.472;9.794;2023-04-21T09:52:11;18.20;1.00
15969;DHT22;8085;53.472;9.794;2023-04-21T09:54:44;18.30;1.00
15969;DHT22;8085;53.472;9.794;2023-04-21T09:57:19;18.40;1.00
15969;DHT22;8085;53.472;9.794;2023-04-21T09:59:50;18.40;1.00
15969;DHT22;8085;53.472;9.794;2023-04-21T10:02:18;18.40;1.00
15969;DHT22;8085;53.472;9.794;2023-04-21T10:04:45;18.70;1.00
15969;DHT22;8085;53.472;9.794;2023-04-21T10:07:13;18.70;1.00
15969;DHT22;8085;53.472;9.794;2023-04-21T10:09:44;18.70;1.00
15969;DHT22;8085;53.472;9.794;2023-04-21T10:12:12;19.00;99.90
15969;DHT22;8085;53.472;9.794;2023-04-21T10:14:40;18.90;99.90
15969;DHT22;8085;53.472;9.794;2023-04-21T10:17:08;19.00;7.90
15969;DHT22;8085;53.472;9.794;2023-04-21T10:19:58;18.90;84.80
15969;DHT22;8085;53.472;9.794;2023-04-21T10:22:28;18.90;1.00
15969;DHT22;8085;53.472;9.794;2023-04-21T10:24:56;19.00;1.00
15969;DHT22;8085;53.472;9.794;2023-04-21T10:27:31;19.10;1.00
15969;DHT22;8085;53.472;9.794;2023-04-21T10:29:59;19.20;1.00
15969;DHT22;8085;53.472;9.794;2023-04-21T10:32:40;19.30;1.00
15969;DHT22;8085;53.472;9.794;2023-04-21T10:35:10;19.40;1.00
15969;DHT22;8085;53.472;9.794;2023-04-21T10:37:39;19.60;1.00
15969;DHT22;8085;53.472;9.794;2023-04-21T10:40:33;19.60;1.00
15969;DHT22;8085;53.472;9.794;2023-04-21T10:43:02;19.70;1.00
15969;DHT22;8085;53.472;9.794;2023-04-21T10:45:30;19.90;1.00
15969;DHT22;8085;53.472;9.794;2023-04-21T10:47:59;20.10;1.00
15969;DHT22;8085;53.472;9.794;2023-04-21T10:50:28;20.30;1.00
15969;DHT22;8085;53.472;9.794;2023-04-21T10:53:05;20.40;1.00
15969;DHT22;8085;53.472;9.794;2023-04-21T10:55:33;20.50;1.00
15969;DHT22;8085;53.472;9.794;2023-04-21T10:58:01;20.40;1.00
15969;DHT22;8085;53.472;9.794;2023-04-21T11:00:28;20.40;1.00
15969;DHT22;8085;53.472;9.794;2023-04-21T11:02:57;20.60;1.00
15969;DHT22;8085;53.472;9.794;2023-04-21T11:05:28;20.70;1.00
15969;DHT22;8085;53.472;9.794;2023-04-21T11:08:11;20.40;1.00
15969;DHT22;8085;53.472;9.794;2023-04-21T11:13:24;20.30;1.00
15969;DHT22;8085;53.472;9.794;2023-04-21T11:15:59;20.00;1.00
15969;DHT22;8085;53.472;9.794;2023-04-21T11:18:37;20.20;1.00
15969;DHT22;8085;53.472;9.794;2023-04-21T11:21:12;20.20;1.00
15969;DHT22;8085;53.472;9.794;2023-04-21T11:23:49;20.30;1.00
15969;DHT22;8085;53.472;9.794;2023-04-21T11:26:16;20.30;1.00
15969;DHT22;8085;53.472;9.794;2023-04-21T11:28:46;20.30;1.00
15969;DHT22;8085;53.472;9.794;2023-04-21T11:31:14;20.40;1.00
15969;DHT22;8085;53.472;9.794;2023-04-21T11:33:41;20.60;1.00
15969;DHT22;8085;53.472;9.794;2023-04-21T11:36:08;20.80;1.00
15969;DHT22;8085;53.472;9.794;2023-04-21T11:38:39;20.70;1.00
15969;DHT22;8085;53.472;9.794;2023-04-21T11:41:08;21.00;1.00
15969;DHT22;8085;53.472;9.794;2023-04-21T11:43:36;21.00;99.90
15969;DHT22;8085;53.472;9.794;2023-04-21T11:46:15;20.90;1.00
15969;DHT22;8085;53.472;9.794;2023-04-21T11:48:42;21.10;99.90
15969;DHT22;8085;53.472;9.794;2023-04-21T11:51:14;21.10;1.00
15969;DHT22;8085;53.472;9.794;2023-04-21T11:53:46;21.20;99.90
15969;DHT22;8085;53.472;9.794;2023-04-21T11:56:19;20.90;1.00
15969;DHT22;8085;53.472;9.794;2023-04-21T11:58:52;20.90;1.00
15969;DHT22;8085;53.472;9.794;2023-04-21T12:01:21;20.70;1.00
15969;DHT22;8085;53.472;9.794;2023-04-21T12:03:52;20.80;1.00
15969;DHT22;8085;53.472;9.794;2023-04-21T12:06:20;20.80;1.00
15969;DHT22;8085;53.472;9.794;2023-04-21T12:09:01;21.10;1.00
15969;DHT22;8085;53.472;9.794;2023-04-21T12:11:30;21.10;99.90
15969;DHT22;8085;53.472;9.794;2023-04-21T12:13:57;20.90;99.90
15969;DHT22;8085;53.472;9.794;2023-04-21T12:16:28;20.90;99.90
15969;DHT22;8085;53.472;9.794;2023-04-21T12:18:55;21.00;99.90
15969;DHT22;8085;53.472;9.794;2023-04-21T12:21:26;21.10;99.90
15969;DHT22;8085;53.472;9.794;2023-04-21T12:23:53;21.10;99.90
15969;DHT22;8085;53.472;9.794;2023-04-21T12:26:20;21.50;99.90
15969;DHT22;8085;53.472;9.794;2023-04-21T12:28:50;21.70;99.90
15969;DHT22;8085;53.472;9.794;2023-04-21T12:31:23;21.80;99.90
15969;DHT22;8085;53.472;9.794;2023-04-21T12:33:55;21.80;99.90
15969;DHT22;8085;53.472;9.794;2023-04-21T12:36:46;21.60;99.90
15969;DHT22;8085;53.472;9.794;2023-04-21T12:39:16;21.60;99.90
15969;DHT22;8085;53.472;9.794;2023-04-21T12:42:11;21.90;99.90
15969;DHT22;8085;53.472;9.794;2023-04-21T12:44:40;21.80;99.90
15969;DHT22;8085;53.472;9.794;2023-04-21T12:47:07;21.60;99.90
15969;DHT22;8085;53.472;9.794;2023-04-21T12:49:36;21.40;99.90
15969;DHT22;8085;53.472;9.794;2023-04-21T12:52:04;21.30;99.90
15969;DHT22;8085;53.472;9.794;2023-04-21T12:54:31;21.30;99.90
15969;DHT22;8085;53.472;9.794;2023-04-21T12:56:58;21.70;99.90
15969;DHT22;8085;53.472;9.794;2023-04-21T12:59:26;21.60;99.90
15969;DHT22;8085;53.472;9.794;2023-04-21T13:01:54;21.20;99.90
15969;DHT22;8085;53.472;9.794;2023-04-21T13:04:21;21.10;99.90
15969;DHT22;8085;53.472;9.794;2023-04-21T13:06:49;21.10;99.90
15969;DHT22;8085;53.472;9.794;2023-04-21T13:09:31;21.20;99.90
15969;DHT22;8085;53.472;9.794;2023-04-21T13:12:12;21.40;99.90
15969;DHT22;8085;53.472;9.794;2023-04-21T13:14:39;21.40;99.90
15969;DHT22;8085;53.472;9.794;2023-04-21T13:17:08;21.30;99.90
15969;DHT22;8085;53.472;9.794;2023-04-21T13:19:38;21.20;99.90
15969;DHT22;8085;53.472;9.794;2023-04-21T13:22:05;21.40;99.90
15969;DHT22;8085;53.472;9.794;2023-04-21T13:24:35;21.60;99.90
15969;DHT22;8085;53.472;9.794;2023-04-21T13:27:02;21.40;99.90
15969;DHT22;8085;53.472;9.794;2023-04-21T13:29:31;21.30;99.90
15969;DHT22;8085;53.472;9.794;2023-04-21T13:31:58;21.10;99.90
15969;DHT22;8085;53.472;9.794;2023-04-21T13:34:27;21.30;99.90
15969;DHT22;8085;53.472;9.794;2023-04-21T13:37:01;21.30;99.90
15969;DHT22;8085;53.472;9.794;2023-04-21T13:39:29;21.30;99.90
15969;DHT22;8085;53.472;9.794;2023-04-21T13:42:00;21.20;99.90
15969;DHT22;8085;53.472;9.794;2023-04-21T13:44:35;21.00;99.90
15969;DHT22;8085;53.472;9.794;2023-04-21T13:47:05;20.80;99.90
15969;DHT22;8085;53.472;9.794;2023-04-21T13:49:35;20.90;99.90
15969;DHT22;8085;53.472;9.794;2023-04-21T13:52:04;20.80;99.90
15969;DHT22;8085;53.472;9.794;2023-04-21T13:54:35;21.00;99.90
15969;DHT22;8085;53.472;9.794;2023-04-21T13:57:08;21.10;99.90
15969;DHT22;8085;53.472;9.794;2023-04-21T13:59:37;21.30;99.90
15969;DHT22;8085;53.472;9.794;2023-04-21T14:02:07;21.30;99.90
15969;DHT22;8085;53.472;9.794;2023-04-21T14:04:39;21.30;99.90
15969;DHT22;8085;53.472;9.794;2023-04-21T14:07:10;21.40;99.90
15969;DHT22;8085;53.472;9.794;2023-04-21T14:09:55;21.40;99.90
15969;DHT22;8085;53.472;9.794;2023-04-21T14:12:22;21.30;99.90
15969;DHT22;8085;53.472;9.794;2023-04-21T14:14:50;21.40;99.90
15969;DHT22;8085;53.472;9.794;2023-04-21T14:17:17;21.50;99.90
15969;DHT22;8085;53.472;9.794;2023-04-21T14:19:48;21.50;99.90
15969;DHT22;8085;53.472;9.794;2023-04-21T14:22:15;21.60;99.90
15969;DHT22;8085;53.472;9.794;2023-04-21T14:24:43;21.40;99.90
15969;DHT22;8085;53.472;9.794;2023-04-21T14:27:09;21.50;99.90
15969;DHT22;8085;53.472;9.794;2023-04-21T14:29:36;21.60;99.90
15969;DHT22;8085;53.472;9.794;2023-04-21T14:32:03;21.60;99.90
15969;DHT22;8085;53.472;9.794;2023-04-21T14:34:30;21.30;99.90
15969;DHT22;8085;53.472;9.794;2023-04-21T14:36:59;21.20;99.90
15969;DHT22;8085;53.472;9.794;2023-04-21T14:39:26;21.30;99.90
15969;DHT22;8085;53.472;9.794;2023-04-21T14:41:53;21.40;99.90
15969;DHT22;8085;53.472;9.794;2023-04-21T14:44:20;21.40;99.90
15969;DHT22;8085;53.472;9.794;2023-04-21T14:46:47;21.30;99.90
15969;DHT22;8085;53.472;9.794;2023-04-21T14:49:14;21.10;99.90
15969;DHT22;8085;53.472;9.794;2023-04-21T14:51:41;21.10;99.90
15969;DHT22;8085;53.472;9.794;2023-04-21T14:54:12;21.00;99.90
15969;DHT22;8085;53.472;9.794;2023-04-21T14:56:39;20.90;99.90
15969;DHT22;8085;53.472;9.794;2023-04-21T14:59:09;21.00;99.90
15969;DHT22;8085;53.472;9.794;2023-04-21T15:01:36;21.00;99.90
15969;DHT22;8085;53.472;9.794;2023-04-21T15:04:07;21.00;99.90
15969;DHT22;8085;53.472;9.794;2023-04-21T15:06:36;20.90;99.90
15969;DHT22;8085;53.472;9.794;2023-04-21T15:09:03;21.10;99.90
15969;DHT22;8085;53.472;9.794;2023-04-21T15:11:37;21.10;99.90
15969;DHT22;8085;53.472;9.794;2023-04-21T15:14:04;21.30;99.90
15969;DHT22;8085;53.472;9.794;2023-04-21T15:16:31;21.20;99.90
15969;DHT22;8085;53.472;9.794;2023-04-21T15:18:58;21.30;99.90
15969;DHT22;8085;53.472;9.794;2023-04-21T15:21:28;21.20;99.90
15969;DHT22;8085;53.472;9.794;2023-04-21T15:23:59;20.90;99.90
15969;DHT22;8085;53.472;9.794;2023-04-21T15:26:27;20.70;99.90
15969;DHT22;8085;53.472;9.794;2023-04-21T15:28:56;20.70;99.90
15969;DHT22;8085;53.472;9.794;2023-04-21T15:31:23;20.80;99.90
15969;DHT22;8085;53.472;9.794;2023-04-21T15:33:50;20.70;99.90
15969;DHT22;8085;53.472;9.794;2023-04-21T15:36:17;20.60;99.90
15969;DHT22;8085;53.472;9.794;2023-04-21T15:38:44;20.60;99.90
15969;DHT22;8085;53.472;9.794;2023-04-21T15:41:11;20.60;99.90
15969;DHT22;8085;53.472;9.794;2023-04-21T15:43:40;20.50;99.90
15969;DHT22;8085;53.472;9.794;2023-04-21T15:46:11;20.50;99.90
15969;DHT22;8085;53.472;9.794;2023-04-21T15:48:38;20.40;99.90
15969;DHT22;8085;53.472;9.794;2023-04-21T15:51:06;20.20;99.90
15969;DHT22;8085;53.472;9.794;2023-04-21T15:53:33;20.30;99.90
15969;DHT22;8085;53.472;9.794;2023-04-21T15:56:02;20.30;99.90
15969;DHT22;8085;53.472;9.794;2023-04-21T15:58:29;20.20;99.90
15969;DHT22;8085;53.472;9.794;2023-04-21T16:00:56;20.20;99.90
15969;DHT22;8085;53.472;9.794;2023-04-21T16:03:25;20.20;99.90
15969;DHT22;8085;53.472;9.794;2023-04-21T16:05:52;20.20;99.90
15969;DHT22;8085;53.472;9.794;2023-04-21T16:08:19;20.20;99.90
15969;DHT22;8085;53.472;9.794;2023-04-21T16:10:46;20.20;99.90
15969;DHT22;8085;53.472;9.794;2023-04-21T16:13:14;20.00;99.90
15969;DHT22;8085;53.472;9.794;2023-04-21T16:15:40;20.00;99.90
15969;DHT22;8085;53.472;9.794;2023-04-21T16:18:07;20.10;99.90
15969;DHT22;8085;53.472;9.794;2023-04-21T16:20:36;20.00;99.90
15969;DHT22;8085;53.472;9.794;2023-04-21T16:23:03;20.10;99.90
15969;DHT22;8085;53.472;9.794;2023-04-21T16:25:31;20.20;99.90
15969;DHT22;8085;53.472;9.794;2023-04-21T16:28:00;20.10;99.90
15969;DHT22;8085;53.472;9.794;2023-04-21T16:30:27;20.00;99.90
15969;DHT22;8085;53.472;9.794;2023-04-21T16:32:57;19.90;99.90
15969;DHT22;8085;53.472;9.794;2023-04-21T16:35:25;19.80;99.90
15969;DHT22;8085;53.472;9.794;2023-04-21T16:38:01;19.80;99.90
15969;DHT22;8085;53.472;9.794;2023-04-21T16:40:31;19.70;99.90
15969;DHT22;8085;53.472;9.794;2023-04-21T16:43:00;19.70;99.90
15969;DHT22;8085;53.472;9.794;2023-04-21T16:45:28;19.70;99.90
15969;DHT22;8085;53.472;9.794;2023-04-21T16:47:55;19.60;99.90
15969;DHT22;8085;53.472;9.794;2023-04-21T16:50:22;19.70;99.90
15969;DHT22;8085;53.472;9.794;2023-04-21T16:52:49;19.60;99.90